createdAt,value
2019-03-19T00:01:21.153Z,3.42
2019-03-19T00:04:22.503Z,2.37
2019-03-19T00:07:23.869Z,1.90
2019-03-19T00:10:25.202Z,2.80
2019-03-19T00:13:26.646Z,1.85
2019-03-19T00:16:27.983Z,3.17
2019-03-19T00:19:29.321Z,2.33
2019-03-19T00:22:30.695Z,2.17
2019-03-19T00:25:32.038Z,2.67
2019-03-19T00:28:33.393Z,2.10
2019-03-19T00:31:34.734Z,1.90
2019-03-19T00:34:36.077Z,3.80
2019-03-19T00:37:37.425Z,2.35
2019-03-19T00:40:38.756Z,1.80
2019-03-19T00:43:40.092Z,2.02
2019-03-19T00:46:41.423Z,2.50
2019-03-19T00:49:42.764Z,1.80
2019-03-19T00:52:44.109Z,2.33
2019-03-19T00:55:45.449Z,2.25
2019-03-19T00:58:46.881Z,3.20
2019-03-19T01:01:48.252Z,2.70
2019-03-19T01:04:49.592Z,2.25
2019-03-19T01:07:50.937Z,2.00
2019-03-19T01:10:52.499Z,2.12
2019-03-19T01:13:53.844Z,2.98
2019-03-19T01:16:55.205Z,2.02
2019-03-19T01:19:56.568Z,2.10
2019-03-19T01:22:57.931Z,2.10
2019-03-19T01:25:59.250Z,1.75
2019-03-19T01:29:00.595Z,2.60
2019-03-19T01:32:01.923Z,1.80
2019-03-19T01:35:03.272Z,2.05
2019-03-19T01:38:04.964Z,1.87
2019-03-19T01:41:06.272Z,1.98
2019-03-19T01:44:07.598Z,1.82
2019-03-19T01:47:08.905Z,1.93
2019-03-19T01:50:10.655Z,2.42
2019-03-19T01:53:11.948Z,1.77
2019-03-19T01:56:13.278Z,2.10
2019-03-19T01:59:14.662Z,1.85
2019-03-19T02:02:16.000Z,1.70
2019-03-19T02:05:17.315Z,2.00
2019-03-19T02:08:18.642Z,2.03
2019-03-19T02:11:19.965Z,1.77
2019-03-19T02:14:21.287Z,2.02
2019-03-19T02:17:22.595Z,1.67
2019-03-19T02:20:23.972Z,1.83
2019-03-19T02:23:25.273Z,1.80
2019-03-19T02:26:26.581Z,1.67
2019-03-19T02:29:27.939Z,1.80
2019-03-19T02:32:29.276Z,1.90
2019-03-19T02:35:30.616Z,1.70
2019-03-19T02:38:31.928Z,1.80
2019-03-19T02:41:33.314Z,2.17
2019-03-19T02:44:35.711Z,1.90
2019-03-19T02:47:36.989Z,2.20
2019-03-19T02:50:38.285Z,1.87
2019-03-19T02:53:39.583Z,1.70
2019-03-19T02:56:40.980Z,1.90
2019-03-19T02:59:42.293Z,1.50
2019-03-19T03:02:44.579Z,2.00
2019-03-19T03:05:45.933Z,1.90
2019-03-19T03:08:47.255Z,1.70
2019-03-19T03:11:48.536Z,1.80
2019-03-19T03:14:49.826Z,1.97
2019-03-19T03:17:51.136Z,2.02
2019-03-19T03:20:52.438Z,2.10
2019-03-19T03:23:53.807Z,1.80
2019-03-19T03:26:55.100Z,1.83
2019-03-19T03:29:56.387Z,1.80
2019-03-19T03:32:57.674Z,1.70
2019-03-19T03:35:58.964Z,1.63
2019-03-19T03:39:01.321Z,1.70
2019-03-19T03:42:03.704Z,1.90
2019-03-19T03:45:06.271Z,1.70
2019-03-19T03:48:07.713Z,1.87
2019-03-19T03:51:08.976Z,1.70
2019-03-19T03:54:10.260Z,2.00
2019-03-19T03:57:11.553Z,1.60
2019-03-19T04:00:14.432Z,1.50
2019-03-19T04:03:15.725Z,1.70
2019-03-19T04:06:28.969Z,2.00
2019-03-19T04:09:30.275Z,1.93
2019-03-19T04:12:31.575Z,1.90
2019-03-19T04:15:32.873Z,1.70
2019-03-19T04:18:34.153Z,1.50
2019-03-19T04:21:35.481Z,1.70
2019-03-19T04:24:36.775Z,2.00
2019-03-19T04:27:40.358Z,1.63
2019-03-19T04:30:41.089Z,2.00
2019-03-19T04:33:42.368Z,1.90
2019-03-19T04:36:43.680Z,1.80
2019-03-19T04:39:44.976Z,2.00
2019-03-19T04:42:46.398Z,1.60
2019-03-19T04:45:47.703Z,1.90
2019-03-19T04:48:49.003Z,2.20
2019-03-19T04:51:50.321Z,2.23
2019-03-19T04:54:51.617Z,2.07
2019-03-19T04:57:52.912Z,2.53
2019-03-19T05:00:54.207Z,2.43
2019-03-19T05:03:55.497Z,2.63
2019-03-19T05:06:56.813Z,2.20
2019-03-19T05:09:58.106Z,1.60
2019-03-19T05:13:00.824Z,2.13
2019-03-19T05:16:02.328Z,1.67
2019-03-19T05:19:03.624Z,1.47
2019-03-19T05:22:04.993Z,1.70
2019-03-19T05:25:06.747Z,1.70
2019-03-19T05:28:08.047Z,1.80
2019-03-19T05:31:09.339Z,1.83
2019-03-19T05:34:10.649Z,1.60
2019-03-19T05:37:11.962Z,1.63
2019-03-19T05:40:13.504Z,2.47
2019-03-19T05:43:14.821Z,1.77
2019-03-19T05:46:16.123Z,1.60
2019-03-19T05:49:17.438Z,1.20
2019-03-19T05:52:18.730Z,1.70
2019-03-19T05:55:20.156Z,2.20
2019-03-19T05:58:22.514Z,1.70
2019-03-19T06:01:23.812Z,1.80
2019-03-19T06:04:26.292Z,1.83
2019-03-19T06:07:27.590Z,2.40
2019-03-19T06:10:28.886Z,2.90
2019-03-19T06:13:30.179Z,3.13
2019-03-19T06:16:31.508Z,2.00
2019-03-19T06:19:32.805Z,1.90
2019-03-19T06:22:34.128Z,3.17
2019-03-19T06:25:35.411Z,1.77
2019-03-19T06:28:36.702Z,1.70
2019-03-19T06:31:38.971Z,1.77
2019-03-19T06:34:40.259Z,2.07
2019-03-19T06:37:41.542Z,1.90
2019-03-19T06:40:42.863Z,1.70
2019-03-19T06:43:44.144Z,2.20
2019-03-19T06:46:45.445Z,1.90
2019-03-19T06:49:46.741Z,1.83
2019-03-19T06:52:48.035Z,1.77
2019-03-19T06:55:49.322Z,2.57
2019-03-19T06:58:50.643Z,1.90
2019-03-19T07:01:51.934Z,2.10
2019-03-19T07:04:53.235Z,1.77
2019-03-19T07:07:57.846Z,2.20
2019-03-19T07:10:59.137Z,2.40
2019-03-19T07:14:00.450Z,1.90
2019-03-19T07:17:01.758Z,2.07
2019-03-19T07:20:03.054Z,3.60
2019-03-19T07:23:04.427Z,2.43
2019-03-19T07:26:05.901Z,2.27
2019-03-19T07:29:07.267Z,1.93
2019-03-19T07:32:09.643Z,1.80
2019-03-19T07:35:11.038Z,2.20
2019-03-19T07:38:12.340Z,1.90
2019-03-19T07:41:19.891Z,2.30
2019-03-19T07:44:21.188Z,2.10
2019-03-19T07:47:22.493Z,2.00
2019-03-19T07:50:23.806Z,2.67
2019-03-19T07:53:28.112Z,2.23
2019-03-19T07:56:29.440Z,2.10
2019-03-19T07:59:30.724Z,2.33
2019-03-19T08:02:32.032Z,2.20
2019-03-19T08:05:33.662Z,1.90
2019-03-19T08:08:34.912Z,1.90
2019-03-19T08:11:36.258Z,2.37
2019-03-19T08:14:37.565Z,1.90
2019-03-19T08:17:38.876Z,2.47
2019-03-19T08:20:41.260Z,2.83
2019-03-19T08:23:42.591Z,2.20
2019-03-19T08:26:43.893Z,2.17
2019-03-19T08:29:45.178Z,1.70
2019-03-19T08:32:46.514Z,2.17
2019-03-19T08:35:47.804Z,2.20
2019-03-19T08:38:49.125Z,1.85
2019-03-19T08:41:50.446Z,2.22
2019-03-19T08:44:51.770Z,4.67
2019-03-19T08:47:53.090Z,2.23
2019-03-19T08:50:54.403Z,2.10
2019-03-19T08:53:55.721Z,3.35
2019-03-19T08:56:57.023Z,1.90
2019-03-19T08:59:58.363Z,2.45
2019-03-19T09:02:59.718Z,3.27
2019-03-19T09:06:01.044Z,4.85
2019-03-19T09:09:02.375Z,1.95
2019-03-19T09:12:04.861Z,2.42
2019-03-19T09:15:07.867Z,2.02
2019-03-19T09:18:09.344Z,1.52
2019-03-19T09:21:10.703Z,2.70
2019-03-19T09:24:12.080Z,2.70
2019-03-19T09:27:14.484Z,2.30
2019-03-19T09:30:16.600Z,2.40
2019-03-19T09:33:17.990Z,1.80
2019-03-19T09:36:19.332Z,2.15
2019-03-19T09:39:20.695Z,2.60
2019-03-19T09:42:22.025Z,1.82
2019-03-19T09:45:23.353Z,2.67
2019-03-19T09:48:24.665Z,2.62
2019-03-19T09:51:25.982Z,2.20
2019-03-19T09:54:27.313Z,1.90
2019-03-19T09:57:28.655Z,1.92
2019-03-19T10:00:30.051Z,2.10
2019-03-19T10:03:31.411Z,1.92
2019-03-19T10:06:32.772Z,2.83
2019-03-19T10:09:34.160Z,1.67
2019-03-19T10:12:35.496Z,2.50
2019-03-19T10:15:36.888Z,2.50
2019-03-19T10:18:38.270Z,1.85
2019-03-19T10:21:40.214Z,2.47
2019-03-19T10:24:41.557Z,1.67
2019-03-19T10:27:43.056Z,3.62
2019-03-19T10:30:44.461Z,1.50
2019-03-19T10:33:45.831Z,1.60
2019-03-19T10:36:47.266Z,1.52
2019-03-19T10:39:48.635Z,2.12
2019-03-19T10:42:50.156Z,1.72
2019-03-19T10:45:51.500Z,3.15
2019-03-19T10:48:52.836Z,1.57
2019-03-19T10:51:54.173Z,1.60
2019-03-19T10:54:55.548Z,1.77
2019-03-19T10:57:56.903Z,1.65
2019-03-19T11:00:58.269Z,2.40
2019-03-19T11:04:00.017Z,1.90
2019-03-19T11:07:01.400Z,2.35
2019-03-19T11:10:02.859Z,1.50
2019-03-19T11:13:04.396Z,1.70
2019-03-19T11:16:06.081Z,1.52
2019-03-19T11:19:07.474Z,1.87
2019-03-19T11:22:08.891Z,1.40
2019-03-19T11:25:12.592Z,1.35
2019-03-19T11:28:14.041Z,1.57
2019-03-19T11:31:15.429Z,2.02
2019-03-19T11:34:16.807Z,1.47
2019-03-19T11:37:18.193Z,1.70
2019-03-19T11:40:19.920Z,1.32
2019-03-19T11:43:21.355Z,2.25
2019-03-19T11:46:22.708Z,3.65
2019-03-19T11:49:24.060Z,9.48
2019-03-19T11:52:25.399Z,9.30
2019-03-19T11:55:26.730Z,12.65
2019-03-19T11:58:28.086Z,6.00
2019-03-19T12:01:29.429Z,7.40
2019-03-19T12:04:30.853Z,6.50
2019-03-19T12:07:32.222Z,9.80
2019-03-19T12:10:33.613Z,6.60
2019-03-19T12:13:34.984Z,7.53
2019-03-19T12:16:37.410Z,5.72
2019-03-19T12:19:38.827Z,8.53
2019-03-19T12:22:40.191Z,9.10
2019-03-19T12:25:41.568Z,5.58
2019-03-19T12:28:42.927Z,5.45
2019-03-19T12:31:44.312Z,3.95
2019-03-19T12:34:45.659Z,4.47
2019-03-19T12:37:47.175Z,6.55
2019-03-19T12:40:48.541Z,3.52
2019-03-19T12:43:49.993Z,8.00
2019-03-19T12:46:51.380Z,10.80
2019-03-19T12:49:52.860Z,7.33
2019-03-19T12:52:54.370Z,7.80
2019-03-19T12:55:55.753Z,5.00
2019-03-19T12:58:57.163Z,3.25
2019-03-19T13:01:58.568Z,3.15
2019-03-19T13:04:59.982Z,4.30
2019-03-19T13:08:01.362Z,4.50
2019-03-19T13:11:02.752Z,5.00
2019-03-19T13:14:05.191Z,3.67
2019-03-19T13:17:06.600Z,6.45
2019-03-19T13:20:09.367Z,3.33
2019-03-19T13:23:10.786Z,2.65
2019-03-19T13:26:12.165Z,5.85
2019-03-19T13:29:13.551Z,2.40
2019-03-19T13:32:14.936Z,3.15
2019-03-19T13:35:16.431Z,4.25
2019-03-19T13:38:17.830Z,4.85
2019-03-19T13:41:19.240Z,2.55
2019-03-19T13:44:20.665Z,5.00
2019-03-19T13:47:22.067Z,2.80
2019-03-19T13:50:23.667Z,3.62
2019-03-19T13:53:25.086Z,2.72
2019-03-19T13:56:26.474Z,3.50
2019-03-19T13:59:27.864Z,3.95
2019-03-19T14:02:29.346Z,2.83
2019-03-19T14:05:30.808Z,3.30
2019-03-19T14:08:32.290Z,3.47
2019-03-19T14:11:33.679Z,2.58
2019-03-19T14:14:35.068Z,6.83
2019-03-19T14:17:36.446Z,1.37
2019-03-19T14:20:37.853Z,3.67
2019-03-19T14:23:39.415Z,4.05
2019-03-19T14:26:40.783Z,2.98
2019-03-19T14:29:42.224Z,3.42
2019-03-19T14:32:43.604Z,2.22
2019-03-19T14:35:45.068Z,2.55
2019-03-19T14:38:47.389Z,6.45
2019-03-19T14:41:48.890Z,2.47
2019-03-19T14:44:53.087Z,2.55
2019-03-19T14:47:54.496Z,3.27
2019-03-19T14:50:55.570Z,3.87
2019-03-19T14:53:56.906Z,3.42
2019-03-19T14:56:58.379Z,2.75
2019-03-19T14:59:59.874Z,3.50
2019-03-19T15:03:02.884Z,5.97
2019-03-19T15:06:04.306Z,4.35
2019-03-19T15:09:07.585Z,5.22
2019-03-19T15:12:09.061Z,2.37
2019-03-19T15:15:12.020Z,4.72
2019-03-19T15:18:13.599Z,2.22
2019-03-19T15:21:15.041Z,6.08
2019-03-19T15:24:16.539Z,3.72
2019-03-19T15:27:17.952Z,3.47
2019-03-19T15:30:19.510Z,2.87
2019-03-19T15:33:20.891Z,5.25
2019-03-19T15:36:22.269Z,4.87
2019-03-19T15:39:23.667Z,3.75
2019-03-19T15:42:26.210Z,3.90
2019-03-19T15:45:27.626Z,1.98
2019-03-19T15:48:28.996Z,4.58
2019-03-19T15:51:30.387Z,3.95
2019-03-19T15:54:31.781Z,3.37
2019-03-19T15:57:33.166Z,6.75
2019-03-19T16:00:34.685Z,4.50
2019-03-19T16:03:36.121Z,4.70
2019-03-19T16:06:37.527Z,3.77
2019-03-19T16:09:38.920Z,3.92
2019-03-19T16:12:40.307Z,3.90
2019-03-19T16:15:41.716Z,2.58
2019-03-19T16:18:43.093Z,2.98
2019-03-19T16:21:44.509Z,3.42
2019-03-19T16:24:45.900Z,5.50
2019-03-19T16:27:47.396Z,11.25
2019-03-19T16:30:48.791Z,13.83
2019-03-19T16:33:50.171Z,12.60
2019-03-19T16:36:51.558Z,7.62
2019-03-19T16:39:52.961Z,7.92
2019-03-19T16:42:54.384Z,8.60
2019-03-19T16:45:55.794Z,10.98
2019-03-19T16:48:57.200Z,7.65
2019-03-19T16:51:58.602Z,7.05
2019-03-19T16:55:00.003Z,7.95
2019-03-19T16:58:01.413Z,5.37
2019-03-19T17:01:02.840Z,8.55
2019-03-19T17:04:04.416Z,6.50
2019-03-19T17:07:05.800Z,10.30
2019-03-19T17:10:09.292Z,6.08
2019-03-19T17:13:10.823Z,6.87
2019-03-19T17:16:12.216Z,4.70
2019-03-19T17:19:13.745Z,6.50
2019-03-19T17:22:15.161Z,7.70
2019-03-19T17:25:17.522Z,6.37
2019-03-19T17:28:22.787Z,6.58
2019-03-19T17:31:22.025Z,6.00
2019-03-19T17:34:23.487Z,7.05
2019-03-19T17:37:24.887Z,7.10
2019-03-19T17:40:27.572Z,7.37
2019-03-19T17:43:28.957Z,5.78
2019-03-19T17:46:30.354Z,8.83
2019-03-19T17:49:31.725Z,4.67
2019-03-19T17:52:33.175Z,4.37
2019-03-19T17:55:34.616Z,4.87
2019-03-19T17:58:36.008Z,6.10
2019-03-19T18:01:37.393Z,5.35
2019-03-19T18:04:38.797Z,7.72
2019-03-19T18:07:40.198Z,5.15
2019-03-19T18:10:41.588Z,3.92
2019-03-19T18:13:43.018Z,5.75
2019-03-19T18:16:44.440Z,4.42
2019-03-19T18:19:45.845Z,4.42
2019-03-19T18:22:47.242Z,5.12
2019-03-19T18:25:48.691Z,4.87
2019-03-19T18:28:51.142Z,6.37
2019-03-19T18:31:52.582Z,2.83
2019-03-19T18:34:54.043Z,5.42
2019-03-19T18:37:55.532Z,4.00
2019-03-19T18:40:56.889Z,6.87
2019-03-19T18:43:58.301Z,3.30
2019-03-19T18:46:59.688Z,2.45
2019-03-19T18:50:01.053Z,5.45
2019-03-19T18:53:02.540Z,4.40
2019-03-19T18:56:04.025Z,3.87
2019-03-19T18:59:05.419Z,3.15
2019-03-19T19:02:06.946Z,4.37
2019-03-19T19:05:10.594Z,4.00
2019-03-19T19:08:12.839Z,4.78
2019-03-19T19:11:14.302Z,2.98
2019-03-19T19:14:15.730Z,3.10
2019-03-19T19:17:17.146Z,5.65
2019-03-19T19:20:18.681Z,4.95
2019-03-19T19:23:20.125Z,3.45
2019-03-19T19:26:21.531Z,1.92
2019-03-19T19:29:22.922Z,3.20
2019-03-19T19:32:24.343Z,4.10
2019-03-19T19:35:25.750Z,3.10
2019-03-19T19:38:27.172Z,4.67
2019-03-19T19:41:28.608Z,6.03
2019-03-19T19:44:31.051Z,5.35
2019-03-19T19:47:32.452Z,3.30
2019-03-19T19:50:33.846Z,4.22
2019-03-19T19:53:35.239Z,5.45
2019-03-19T19:56:36.630Z,3.70
2019-03-19T19:59:38.024Z,5.60
2019-03-19T20:02:39.407Z,5.10
2019-03-19T20:05:40.787Z,3.35
2019-03-19T20:08:42.191Z,3.98
2019-03-19T20:11:43.549Z,4.15
2019-03-19T20:14:44.981Z,3.25
2019-03-19T20:17:46.449Z,2.95
2019-03-19T20:20:47.816Z,4.45
2019-03-19T20:23:49.223Z,4.05
2019-03-19T20:26:50.699Z,5.50
2019-03-19T20:29:52.066Z,2.90
2019-03-19T20:32:53.512Z,4.35
2019-03-19T20:35:55.885Z,3.77
2019-03-19T20:38:57.507Z,6.05
2019-03-19T20:42:00.069Z,4.80
2019-03-19T20:45:01.496Z,3.65
2019-03-19T20:48:03.053Z,3.47
2019-03-19T20:51:04.517Z,4.65
2019-03-19T20:54:06.244Z,3.90
2019-03-19T20:57:07.630Z,5.05
2019-03-19T21:00:12.200Z,4.25
2019-03-19T21:03:13.805Z,4.40
2019-03-19T21:06:15.352Z,3.77
2019-03-19T21:09:16.822Z,3.58
2019-03-19T21:12:18.310Z,2.72
2019-03-19T21:15:24.545Z,3.25
2019-03-19T21:18:25.966Z,4.28
2019-03-19T21:21:27.400Z,4.35
2019-03-19T21:24:28.853Z,4.67
2019-03-19T21:27:30.349Z,3.42
2019-03-19T21:30:31.812Z,4.62
2019-03-19T21:33:33.320Z,4.30
2019-03-19T21:36:34.398Z,5.83
2019-03-19T21:39:35.790Z,4.78
2019-03-19T21:42:37.258Z,5.15
2019-03-19T21:45:38.887Z,5.33
2019-03-19T21:48:40.359Z,3.77
2019-03-19T21:51:41.859Z,3.47
2019-03-19T21:54:43.364Z,3.87
2019-03-19T21:57:44.886Z,3.80
2019-03-19T22:00:46.379Z,4.72
2019-03-19T22:03:47.952Z,3.25
2019-03-19T22:06:49.415Z,4.78
2019-03-19T22:09:50.919Z,3.70
2019-03-19T22:12:53.508Z,4.22
2019-03-19T22:15:58.166Z,3.40
2019-03-19T22:18:59.721Z,5.45
2019-03-19T22:22:01.203Z,3.95
2019-03-19T22:25:02.651Z,5.30
2019-03-19T22:28:04.203Z,4.00
2019-03-19T22:31:05.642Z,4.87
2019-03-19T22:34:14.045Z,5.50
2019-03-19T22:37:10.105Z,3.70
2019-03-19T22:40:13.232Z,5.28
2019-03-19T22:43:14.665Z,4.33
2019-03-19T22:46:21.811Z,4.50
2019-03-19T22:49:19.117Z,4.55
2019-03-19T22:52:20.511Z,3.08
2019-03-19T22:55:29.073Z,5.58
2019-03-19T22:58:25.093Z,3.42
2019-03-19T23:01:26.522Z,6.12
2019-03-19T23:04:28.210Z,3.10
2019-03-19T23:07:29.708Z,4.90
2019-03-19T23:10:31.188Z,3.47
2019-03-19T23:13:34.234Z,5.00
2019-03-19T23:16:35.737Z,5.22
2019-03-19T23:19:39.141Z,4.90
2019-03-19T23:22:40.546Z,3.75
2019-03-19T23:25:41.910Z,3.77
2019-03-19T23:28:43.363Z,3.25
2019-03-19T23:31:44.853Z,3.65
2019-03-19T23:34:46.277Z,3.25
2019-03-19T23:37:47.744Z,5.25
2019-03-19T23:40:49.159Z,3.92
2019-03-19T23:43:50.643Z,3.77
2019-03-19T23:46:52.095Z,4.85
2019-03-19T23:49:53.497Z,5.05
2019-03-19T23:52:54.984Z,3.20
2019-03-19T23:55:56.405Z,3.25
2019-03-19T23:58:58.874Z,5.08
